KBMG/BMG METAR and TAF weather

Enter ICAO airport designator
Station Type Date Time Source
KBMG METAR 2018/12/12 15:53 UTC NOAA

KBMG 121553Z 21014G22KT 10SM SCT060 07/M01 A2992 RMK AO2 SLP134 T00721006


Station Type Date Time Source
KBMG Decoded METAR 2018/12/12 15:53 UTC NOAA

MONROE COUNTY AIRPORT, IN, United States (KBMG) 39-09N 086-37W 257M
Dec 12, 2018 - 10:53 AM EST / 2018.12.12 1553 UTC
Wind: from the SSW (210 degrees) at 16 MPH (14 KT) gusting to 25 MPH (22 KT):0
Visibility: 10 mile(s):0
Sky conditions: partly cloudy
Temperature: 45.0 F (7.2 C)
Dew Point: 30.9 F (-0.6 C)
Relative Humidity: 57%
Pressure (altimeter): 29.92 in. Hg (1013 hPa)
ob: KBMG 121553Z 21014G22KT 10SM SCT060 07/M01 A2992 RMK AO2 SLP134 T00721006
cycle: 16

Station Type Date Time Source
KBMG TAF 2018/12/12 12:22 UTC NOAA

TAF KBMG 121120Z 1212/1312 17009KT P6SM OVC210 WS020/23035KT
FM121400 20011KT P6SM BKN210
FM121500 20011G22KT P6SM SCT050 BKN160
FM122200 23009KT P6SM SCT240
FM130700 VRB04KT P6SM BKN025
FM130900 VRB04KT P6SM BKN005
AMD LTD TO CLD VIS AND WIND TIL 121400


Example: see airport list